Decoded Metar for UGKO (KOPITNARI in GEORGIA) (IATA:N/A) | Meteo·Mobile Aviation Weather
aviador You're here:

UGKO Decoded Metar

KOPITNARI in GEORGIA
Report Time2018-09-19 21:00:00
UTC Time2018-09-19 21:08:01
Flight Rules vfr VFR
Wind050° at 03 kt
W.Decomp.*RWY 08: 2.4 kt HW 1.8 kt LCW
W.Rank050° ranks 16
Current wind is below 050° avg. (4.5)
Visibility9999 m
Phenomena:N/A
Clouds:Scattered 047 Hf
Expected CloudBase > 400 ft AGL from Temp-Dew spread
CeilingNone
Temp17°C (ISA +2)
Dew Point16°C (94% RH)
QNH1021 hPa
Density Alt482 ft
Elevation223 ft
Report Wrong Elevation
Raw Report
METAR UGKO 192100Z 05003KT 9999 SCT047 17/16 Q1021 NOSIG=

Extra information for UGKO:More info

Metar Taf Metar & Taf Last 4 Metars F.Rules Stats Wind Profile Meteogram Temp Stats Airport Information Weather charts Add Link Nearby VenuesMetar ALERT Operation Metar Decoded Social comments